createdAt,value
2018-12-11T00:03:13.925Z,99835.67
2018-12-11T00:08:17.291Z,99843.86
2018-12-11T00:13:21.130Z,99841.63
2018-12-11T00:18:24.535Z,99838.73
2018-12-11T00:23:28.052Z,99848.27
2018-12-11T00:28:31.456Z,99856.46
2018-12-11T00:33:34.935Z,99860.49
2018-12-11T00:38:38.373Z,99858.70
2018-12-11T00:43:41.797Z,99856.86
2018-12-11T00:48:45.274Z,99852.83
2018-12-11T00:53:55.442Z,99859.43
2018-12-11T00:58:58.872Z,99851.72
2018-12-11T01:04:02.504Z,99847.94
2018-12-11T01:09:07.036Z,99844.32
2018-12-11T01:14:10.580Z,99850.55
2018-12-11T01:19:14.042Z,99857.23
2018-12-11T01:24:17.465Z,99855.69
2018-12-11T01:29:20.819Z,99852.80
2018-12-11T01:34:24.347Z,99858.70
2018-12-11T01:39:27.821Z,99863.74
2018-12-11T01:44:31.186Z,99865.04
2018-12-11T01:49:34.590Z,99857.91
2018-12-11T01:54:37.968Z,99864.45
2018-12-11T01:59:41.357Z,99865.66
2018-12-11T02:04:44.739Z,99865.38
2018-12-11T02:09:48.247Z,99868.77
2018-12-11T02:14:51.639Z,99871.29
2018-12-11T02:19:55.129Z,99867.83
2018-12-11T02:24:58.517Z,99864.63
2018-12-11T02:30:01.904Z,99855.06
2018-12-11T02:35:06.308Z,99867.14
2018-12-11T02:40:09.717Z,99864.17
2018-12-11T02:45:13.041Z,99858.43
2018-12-11T02:50:16.626Z,99864.59
2018-12-11T02:55:20.502Z,99876.69
2018-12-11T03:00:24.586Z,99876.42
2018-12-11T03:05:28.089Z,99868.48
2018-12-11T03:10:31.444Z,99881.13
2018-12-11T03:15:34.788Z,99873.45
2018-12-11T03:20:38.139Z,99881.25
2018-12-11T03:25:41.594Z,99878.56
2018-12-11T03:30:44.937Z,99883.08
2018-12-11T03:35:48.489Z,99887.67
2018-12-11T03:40:52.113Z,99886.55
2018-12-11T03:45:55.521Z,99885.70
2018-12-11T03:50:58.971Z,99879.77
2018-12-11T03:56:02.348Z,99877.36
2018-12-11T04:01:05.838Z,99879.38
2018-12-11T04:06:09.339Z,99872.30
2018-12-11T04:11:12.775Z,99870.11
2018-12-11T04:16:16.264Z,99880.20
2018-12-11T04:21:19.761Z,99886.91
2018-12-11T04:26:23.209Z,99888.26
2018-12-11T04:31:26.621Z,99883.45
2018-12-11T04:36:30.008Z,99885.28
2018-12-11T04:41:33.465Z,99882.71
2018-12-11T04:46:36.854Z,99882.34
2018-12-11T04:51:41.349Z,99886.84
2018-12-11T04:56:44.762Z,99889.23
2018-12-11T05:01:48.157Z,99890.69
2018-12-11T05:06:51.580Z,99886.77
2018-12-11T05:11:55.068Z,99898.19
2018-12-11T05:16:58.401Z,99902.20
2018-12-11T05:22:01.882Z,99906.42
2018-12-11T05:27:05.465Z,99910.07
2018-12-11T05:32:08.848Z,99915.92
2018-12-11T05:37:12.353Z,99913.83
2018-12-11T05:42:15.776Z,99913.91
2018-12-11T05:47:25.669Z,99905.00
2018-12-11T05:52:29.028Z,99909.88
2018-12-11T05:57:32.352Z,99913.45
2018-12-11T06:02:35.778Z,99909.52
2018-12-11T06:07:39.242Z,99914.39
2018-12-11T06:12:42.701Z,99904.25
2018-12-11T06:17:46.762Z,99910.96
2018-12-11T06:22:50.264Z,99914.02
2018-12-11T06:27:53.681Z,99894.38
2018-12-11T06:32:57.089Z,99899.64
2018-12-11T06:38:00.481Z,99912.49
2018-12-11T06:43:03.836Z,99918.83
2018-12-11T06:48:07.705Z,99920.62
2018-12-11T06:53:11.151Z,99933.95
2018-12-11T06:58:14.640Z,99927.25
2018-12-11T07:03:18.406Z,99937.98
2018-12-11T07:08:21.770Z,99941.63
2018-12-11T07:13:25.149Z,99944.77
2018-12-11T07:18:28.481Z,99938.54
2018-12-11T07:23:31.840Z,99951.47
2018-12-11T07:28:35.361Z,99946.22
2018-12-11T07:33:38.804Z,99955.60
2018-12-11T07:38:42.180Z,99953.89
2018-12-11T07:43:45.576Z,99955.71
2018-12-11T07:48:49.053Z,99959.36
2018-12-11T07:53:52.385Z,99952.81
2018-12-11T07:58:55.706Z,99959.41
2018-12-11T08:03:59.023Z,99973.97
2018-12-11T08:09:02.330Z,99967.25
2018-12-11T08:14:05.907Z,99972.45
2018-12-11T08:19:09.545Z,100001.43
2018-12-11T08:24:13.080Z,99999.98
2018-12-11T08:29:17.378Z,100001.94
2018-12-11T08:34:20.951Z,99993.42
2018-12-11T08:39:24.441Z,99993.28
2018-12-11T08:44:27.865Z,99996.13
2018-12-11T08:49:31.417Z,99999.00
2018-12-11T08:54:34.872Z,100005.91
2018-12-11T08:59:38.471Z,100009.20
2018-12-11T09:04:41.959Z,100021.32
2018-12-11T09:09:45.445Z,100020.13
2018-12-11T09:14:49.030Z,100029.63
2018-12-11T09:19:52.485Z,100028.77
2018-12-11T09:24:55.932Z,100046.20
2018-12-11T09:29:59.451Z,100042.20
2018-12-11T09:35:02.999Z,100052.48
2018-12-11T09:40:06.679Z,100047.39
2018-12-11T09:45:10.196Z,100058.34
2018-12-11T09:50:13.882Z,100049.72
2018-12-11T09:55:17.346Z,100053.81
2018-12-11T10:00:25.401Z,100054.41
2018-12-11T10:05:26.240Z,100058.54
2018-12-11T10:10:29.769Z,100066.66
2018-12-11T10:15:33.305Z,100063.12
2018-12-11T10:20:36.983Z,100067.45
2018-12-11T10:25:40.415Z,100073.46
2018-12-11T10:30:48.031Z,100071.02
2018-12-11T10:35:51.459Z,100071.70
2018-12-11T10:41:01.661Z,100074.38
2018-12-11T10:46:05.374Z,100070.27
2018-12-11T10:51:08.876Z,100072.36
2018-12-11T10:56:12.215Z,100072.27
2018-12-11T11:01:21.991Z,100075.73
2018-12-11T11:06:25.381Z,100082.28
2018-12-11T11:11:28.749Z,100084.28
2018-12-11T11:16:32.644Z,100084.57
2018-12-11T11:21:36.070Z,100091.49
2018-12-11T11:26:39.415Z,100096.45
2018-12-11T11:31:42.988Z,100104.05
2018-12-11T11:36:46.306Z,100107.77
2018-12-11T11:41:49.764Z,100114.38
2018-12-11T11:46:53.243Z,100109.48
2018-12-11T11:51:56.609Z,100110.94
2018-12-11T11:56:59.985Z,100120.22
2018-12-11T12:02:03.408Z,100125.31
2018-12-11T12:07:06.870Z,100125.52
2018-12-11T12:12:10.248Z,100126.93
2018-12-11T12:17:13.651Z,100128.47
2018-12-11T12:22:17.198Z,100135.18
2018-12-11T12:27:20.582Z,100137.97
2018-12-11T12:32:24.173Z,100139.41
2018-12-11T12:37:27.637Z,100137.38
2018-12-11T12:42:31.037Z,100139.02
2018-12-11T12:47:34.538Z,100141.48
2018-12-11T12:52:38.042Z,100141.90
2018-12-11T12:57:41.410Z,100143.41
2018-12-11T13:02:49.847Z,100170.19
2018-12-11T13:07:50.106Z,100188.99
2018-12-11T13:12:53.686Z,100192.16
2018-12-11T13:17:57.108Z,100192.45
2018-12-11T13:23:00.471Z,100184.89
2018-12-11T13:28:03.891Z,100173.45
2018-12-11T13:33:07.336Z,100176.20
2018-12-11T13:38:10.720Z,100182.20
2018-12-11T13:43:14.217Z,100177.91
2018-12-11T13:48:23.285Z,100188.72
2018-12-11T13:53:23.167Z,100186.65
2018-12-11T13:58:26.568Z,100190.39
2018-12-11T14:03:30.038Z,100193.76
2018-12-11T14:08:33.525Z,100190.77
2018-12-11T14:13:36.976Z,100202.47
2018-12-11T14:23:47.656Z,100197.77
2018-12-11T14:28:52.781Z,100210.32
2018-12-11T14:33:56.189Z,100216.55
2018-12-11T14:38:59.544Z,100213.77
2018-12-11T14:44:03.023Z,100213.17
2018-12-11T14:49:06.611Z,100219.78
2018-12-11T14:54:10.138Z,100217.03
2018-12-11T14:59:13.527Z,100217.05
2018-12-11T15:04:17.027Z,100220.62
2018-12-11T15:09:40.762Z,100222.06
2018-12-11T15:14:44.118Z,100226.30
2018-12-11T15:19:47.717Z,100231.47
2018-12-11T15:24:57.126Z,100230.75
2018-12-11T15:30:03.284Z,100229.75
2018-12-11T15:35:09.298Z,100241.31
2018-12-11T15:40:18.107Z,100241.59
2018-12-11T15:45:28.248Z,100235.95
2018-12-11T15:50:32.026Z,100242.89
2018-12-11T15:55:40.977Z,100238.73
2018-12-11T16:00:45.861Z,100241.30
2018-12-11T16:05:50.614Z,100245.14
2018-12-11T16:10:56.548Z,100243.58
2018-12-11T16:16:00.320Z,100249.26
2018-12-11T16:21:03.991Z,100253.29
2018-12-11T16:26:07.701Z,100260.84
2018-12-11T16:31:11.571Z,100270.71
2018-12-11T16:36:15.221Z,100277.62
2018-12-11T16:41:19.603Z,100275.16
2018-12-11T16:46:23.249Z,100275.53
2018-12-11T16:56:50.886Z,100284.05
2018-12-11T17:01:55.636Z,100283.84
2018-12-11T17:12:47.731Z,100301.87
2018-12-11T17:23:17.957Z,100306.70
2018-12-11T17:28:30.867Z,100309.95
2018-12-11T17:33:40.272Z,100316.08
2018-12-11T18:14:48.636Z,100335.48
2018-12-11T18:19:52.269Z,100337.69
2018-12-11T18:24:56.920Z,100343.55
2018-12-11T18:35:59.166Z,100350.84
2018-12-11T18:46:33.487Z,100359.70
2018-12-11T19:24:43.732Z,100378.86
2018-12-11T19:35:21.086Z,100374.72
2018-12-11T19:40:25.040Z,100373.00
2018-12-11T19:56:21.232Z,100385.64
2018-12-11T20:01:25.635Z,100380.89
2018-12-11T20:06:29.322Z,100384.56
2018-12-11T20:11:32.722Z,100389.37
2018-12-11T20:16:36.279Z,100390.91
2018-12-11T20:21:39.665Z,100397.94
2018-12-11T20:26:43.125Z,100398.88
2018-12-11T20:31:46.492Z,100403.84
2018-12-11T20:36:50.182Z,100410.02
2018-12-11T20:41:53.581Z,100411.47
2018-12-11T20:46:57.181Z,100411.33
2018-12-11T20:52:00.754Z,100411.73
2018-12-11T20:57:04.240Z,100410.77
2018-12-11T21:02:07.645Z,100415.66
2018-12-11T21:07:11.001Z,100418.95
2018-12-11T21:12:14.651Z,100424.70
2018-12-11T21:17:18.254Z,100418.84
2018-12-11T21:22:21.843Z,100423.25
2018-12-11T21:27:25.451Z,100427.22
2018-12-11T21:32:29.132Z,100429.42
2018-12-11T21:37:32.660Z,100431.25
2018-12-11T21:42:36.605Z,100437.12
2018-12-11T21:47:40.110Z,100432.97
2018-12-11T21:52:43.692Z,100440.94
2018-12-11T21:57:47.175Z,100442.02
2018-12-11T22:02:50.802Z,100444.11
2018-12-11T22:07:54.253Z,100442.95
2018-12-11T22:12:57.835Z,100436.90
2018-12-11T22:18:01.373Z,100445.57
2018-12-11T22:23:04.814Z,100447.29
2018-12-11T22:28:08.246Z,100452.67
2018-12-11T22:33:11.669Z,100454.98
2018-12-11T22:38:15.154Z,100459.78
2018-12-11T22:43:18.743Z,100461.34
2018-12-11T22:48:22.205Z,100468.83
2018-12-11T22:53:26.160Z,100475.26
2018-12-11T22:58:30.182Z,100482.66
2018-12-11T23:03:33.719Z,100484.87
2018-12-11T23:08:37.271Z,100484.87
2018-12-11T23:13:40.790Z,100482.66
2018-12-11T23:18:44.234Z,100484.12
2018-12-11T23:23:47.761Z,100486.43
2018-12-11T23:28:51.215Z,100489.13
2018-12-11T23:33:55.008Z,100494.41
2018-12-11T23:38:58.519Z,100497.95
2018-12-11T23:44:01.898Z,100508.13
2018-12-11T23:49:05.442Z,100502.26
2018-12-11T23:54:09.030Z,100518.25
2018-12-11T23:59:12.510Z,100526.59
